createdAt,value
2023-04-16T00:01:13.158Z,8.70
2023-04-16T00:03:40.398Z,8.60
2023-04-16T00:06:07.496Z,8.60
2023-04-16T00:08:35.938Z,8.60
2023-04-16T00:11:02.827Z,8.50
2023-04-16T00:13:29.740Z,8.40
2023-04-16T00:15:56.768Z,8.40
2023-04-16T00:18:23.696Z,8.30
2023-04-16T00:20:50.908Z,8.30
2023-04-16T00:23:17.806Z,8.20
2023-04-16T00:25:44.726Z,8.20
2023-04-16T00:28:11.586Z,8.10
2023-04-16T00:30:38.543Z,8.10
2023-04-16T00:33:05.556Z,8.00
2023-04-16T00:35:32.615Z,7.90
2023-04-16T00:37:59.436Z,7.80
2023-04-16T00:40:32.649Z,7.80
2023-04-16T00:42:59.768Z,7.70
2023-04-16T00:45:26.808Z,7.70
2023-04-16T00:47:53.996Z,7.60
2023-04-16T00:50:21.734Z,7.60
2023-04-16T00:52:49.425Z,7.60
2023-04-16T00:55:18.916Z,7.60
2023-04-16T00:57:46.265Z,7.60
2023-04-16T01:00:13.636Z,7.60
2023-04-16T01:02:40.754Z,7.60
2023-04-16T01:05:08.385Z,7.50
2023-04-16T01:07:35.257Z,7.60
2023-04-16T01:10:02.855Z,7.60
2023-04-16T01:12:29.723Z,7.60
2023-04-16T01:14:57.015Z,7.60
2023-04-16T01:17:23.982Z,7.60
2023-04-16T01:19:51.028Z,7.60
2023-04-16T01:22:17.896Z,7.60
2023-04-16T01:24:45.633Z,7.60
2023-04-16T01:27:12.577Z,7.60
2023-04-16T01:29:39.441Z,7.60
2023-04-16T01:32:06.435Z,7.50
2023-04-16T01:34:33.291Z,7.50
2023-04-16T01:37:00.222Z,7.50
2023-04-16T01:39:27.301Z,7.50
2023-04-16T01:41:54.181Z,7.50
2023-04-16T01:44:22.038Z,7.40
2023-04-16T01:46:49.328Z,7.30
2023-04-16T01:49:16.431Z,7.30
2023-04-16T01:51:43.350Z,7.20
2023-04-16T01:54:10.290Z,7.20
2023-04-16T01:56:37.175Z,7.10
2023-04-16T01:59:04.138Z,7.10
2023-04-16T02:01:31.165Z,7.20
2023-04-16T02:03:58.476Z,7.20
2023-04-16T02:06:25.964Z,7.20
2023-04-16T02:08:52.838Z,7.10
2023-04-16T02:11:19.691Z,7.10
2023-04-16T02:13:46.723Z,7.00
2023-04-16T02:16:13.805Z,6.90
2023-04-16T02:18:40.852Z,6.90
2023-04-16T02:21:08.039Z,6.90
2023-04-16T02:23:34.921Z,6.80
2023-04-16T02:26:03.722Z,6.80
2023-04-16T02:28:30.676Z,6.70
2023-04-16T02:30:57.587Z,6.70
2023-04-16T02:33:26.437Z,6.70
2023-04-16T02:35:53.406Z,6.70
2023-04-16T02:38:20.320Z,6.60
2023-04-16T02:40:47.207Z,6.60
2023-04-16T02:43:14.051Z,6.50
2023-04-16T02:45:40.940Z,6.50
2023-04-16T02:48:09.201Z,6.50
2023-04-16T02:50:36.293Z,6.40
2023-04-16T02:53:04.390Z,6.40
2023-04-16T02:55:31.309Z,6.40
2023-04-16T02:57:58.156Z,6.40
2023-04-16T03:00:25.115Z,6.40
2023-04-16T03:02:52.165Z,6.40
2023-04-16T03:05:19.146Z,6.50
2023-04-16T03:07:46.174Z,6.50
2023-04-16T03:10:13.979Z,6.50
2023-04-16T03:12:41.036Z,6.50
2023-04-16T03:15:08.570Z,6.50
2023-04-16T03:17:35.811Z,6.40
2023-04-16T03:20:02.797Z,6.40
2023-04-16T03:22:29.694Z,6.40
2023-04-16T03:24:56.758Z,6.40
2023-04-16T03:27:23.690Z,6.30
2023-04-16T03:29:50.708Z,6.30
2023-04-16T03:32:17.847Z,6.30
2023-04-16T03:34:44.890Z,6.30
2023-04-16T03:37:14.586Z,6.30
2023-04-16T03:39:41.641Z,6.30
2023-04-16T03:42:08.509Z,6.30
2023-04-16T03:44:35.528Z,6.20
2023-04-16T03:47:02.402Z,6.20
2023-04-16T03:49:29.316Z,6.20
2023-04-16T03:51:56.167Z,6.30
2023-04-16T03:54:23.207Z,6.40
2023-04-16T03:56:50.269Z,6.40
2023-04-16T03:59:17.112Z,6.50
2023-04-16T04:01:44.104Z,6.60
2023-04-16T04:04:11.245Z,6.70
2023-04-16T04:06:38.292Z,6.70
2023-04-16T04:09:05.428Z,6.80
2023-04-16T04:11:32.376Z,6.80
2023-04-16T04:13:59.355Z,6.80
2023-04-16T04:16:26.286Z,6.90
2023-04-16T04:18:53.165Z,6.90
2023-04-16T04:21:20.069Z,7.00
2023-04-16T04:23:46.960Z,7.00
2023-04-16T04:26:13.888Z,7.10
2023-04-16T04:28:40.907Z,7.40
2023-04-16T04:31:07.791Z,7.60
2023-04-16T04:33:34.705Z,7.70
2023-04-16T04:36:01.713Z,7.90
2023-04-16T04:38:28.717Z,8.00
2023-04-16T04:40:55.638Z,8.00
2023-04-16T04:43:22.723Z,8.00
2023-04-16T04:45:49.757Z,8.00
2023-04-16T04:48:17.406Z,8.00
2023-04-16T04:50:46.272Z,8.10
2023-04-16T04:53:14.995Z,8.00
2023-04-16T04:55:42.073Z,8.10
2023-04-16T04:58:08.962Z,8.10
2023-04-16T05:00:37.048Z,8.10
2023-04-16T05:03:10.463Z,8.10
2023-04-16T05:05:37.904Z,8.20
2023-04-16T05:08:05.149Z,8.20
2023-04-16T05:10:32.010Z,8.30
2023-04-16T05:12:58.877Z,8.40
2023-04-16T05:15:25.958Z,8.50
2023-04-16T05:17:52.853Z,8.50
2023-04-16T05:20:19.876Z,8.50
2023-04-16T05:22:46.747Z,8.60
2023-04-16T05:25:13.572Z,8.60
2023-04-16T05:27:40.721Z,8.70
2023-04-16T05:30:08.253Z,8.80
2023-04-16T05:32:35.199Z,9.00
2023-04-16T05:35:02.591Z,9.10
2023-04-16T05:37:29.413Z,9.20
2023-04-16T05:39:56.381Z,9.30
2023-04-16T05:42:23.252Z,9.40
2023-04-16T05:44:51.253Z,9.30
2023-04-16T05:47:18.136Z,9.50
2023-04-16T05:49:45.197Z,9.40
2023-04-16T05:52:12.172Z,9.60
2023-04-16T05:54:39.065Z,9.70
2023-04-16T05:57:05.977Z,9.90
2023-04-16T05:59:33.029Z,10.10
2023-04-16T06:02:00.032Z,10.20
2023-04-16T06:04:31.088Z,10.40
2023-04-16T06:06:57.996Z,10.60
2023-04-16T06:09:25.070Z,10.80
2023-04-16T06:11:52.024Z,10.80
2023-04-16T06:14:19.053Z,11.00
2023-04-16T06:16:46.108Z,11.00
2023-04-16T06:19:12.968Z,11.00
2023-04-16T06:21:39.902Z,11.10
2023-04-16T06:24:06.928Z,11.10
2023-04-16T06:26:33.804Z,11.00
2023-04-16T06:29:01.165Z,11.00
2023-04-16T06:31:28.204Z,11.20
2023-04-16T06:33:55.203Z,11.50
2023-04-16T06:36:22.090Z,11.80
2023-04-16T06:38:48.962Z,11.90
2023-04-16T06:41:15.931Z,12.10
2023-04-16T06:43:42.822Z,12.10
2023-04-16T06:46:09.779Z,12.20
2023-04-16T06:48:36.723Z,12.30
2023-04-16T06:51:04.117Z,12.20
2023-04-16T06:53:31.019Z,12.30
2023-04-16T06:55:57.880Z,12.60
2023-04-16T06:58:24.783Z,12.80
2023-04-16T07:00:51.760Z,12.90
2023-04-16T07:03:18.858Z,13.00
2023-04-16T07:05:45.896Z,13.30
2023-04-16T07:08:12.773Z,13.60
2023-04-16T07:10:39.720Z,14.00
2023-04-16T07:13:06.697Z,14.30
2023-04-16T07:15:33.697Z,14.60
2023-04-16T07:18:00.921Z,14.90
2023-04-16T07:20:27.860Z,15.10
2023-04-16T07:22:55.025Z,15.20
2023-04-16T07:25:22.008Z,15.00
2023-04-16T07:27:49.424Z,15.00
2023-04-16T07:30:16.372Z,14.90
2023-04-16T07:32:43.364Z,14.80
2023-04-16T07:35:10.545Z,14.80
2023-04-16T07:37:37.478Z,15.00
2023-04-16T07:40:04.676Z,15.20
2023-04-16T07:42:31.568Z,15.10
2023-04-16T07:44:58.448Z,15.30
2023-04-16T07:47:26.687Z,15.40
2023-04-16T07:49:53.911Z,15.50
2023-04-16T07:52:21.134Z,15.70
2023-04-16T07:54:47.991Z,15.80
2023-04-16T07:57:14.870Z,15.90
2023-04-16T07:59:41.808Z,15.90
2023-04-16T08:02:13.617Z,16.00
2023-04-16T08:04:42.391Z,16.10
2023-04-16T08:07:09.785Z,16.40
2023-04-16T08:09:36.763Z,16.70
2023-04-16T08:12:04.111Z,16.90
2023-04-16T08:14:30.998Z,17.20
2023-04-16T08:16:58.036Z,17.30
2023-04-16T08:19:24.913Z,17.50
2023-04-16T08:21:51.879Z,17.40
2023-04-16T08:24:18.815Z,17.40
2023-04-16T08:30:08.375Z,17.80
2023-04-16T08:35:16.324Z,17.60
2023-04-16T08:37:43.193Z,17.50
2023-04-16T08:40:10.504Z,17.50
2023-04-16T08:42:55.803Z,17.80
2023-04-16T08:45:23.251Z,18.10
2023-04-16T08:47:52.012Z,18.00
2023-04-16T08:50:24.489Z,18.10
2023-04-16T08:52:59.553Z,18.20
2023-04-16T08:55:39.215Z,18.40
2023-04-16T08:58:20.181Z,18.40
2023-04-16T09:00:48.035Z,18.20
2023-04-16T09:03:15.695Z,17.90
2023-04-16T09:05:43.944Z,17.70
2023-04-16T09:08:10.918Z,17.40
2023-04-16T09:10:37.842Z,17.30
2023-04-16T09:13:04.761Z,17.20
2023-04-16T09:15:35.052Z,16.80
2023-04-16T09:18:02.183Z,16.60
2023-04-16T09:20:29.111Z,16.50
2023-04-16T09:22:57.170Z,16.40
2023-04-16T09:25:25.717Z,16.50
2023-04-16T09:27:52.892Z,16.30
2023-04-16T09:30:25.062Z,16.30
2023-04-16T09:33:11.686Z,16.30
2023-04-16T09:35:50.042Z,16.20
2023-04-16T09:38:17.098Z,16.00
2023-04-16T09:40:44.162Z,15.70
2023-04-16T09:43:18.429Z,15.60
2023-04-16T09:45:55.321Z,15.60
2023-04-16T09:48:32.463Z,15.80
2023-04-16T09:51:00.689Z,16.10
2023-04-16T09:53:29.348Z,16.30
2023-04-16T09:56:06.229Z,16.60
2023-04-16T09:58:36.287Z,16.70
2023-04-16T10:01:10.981Z,16.60
2023-04-16T10:03:40.131Z,16.40
2023-04-16T10:06:18.585Z,16.20
2023-04-16T10:08:57.682Z,16.10
2023-04-16T10:11:24.672Z,16.10
2023-04-16T10:13:52.061Z,16.20
2023-04-16T10:16:19.319Z,16.40
2023-04-16T10:18:47.613Z,16.40
2023-04-16T10:21:16.419Z,16.30
2023-04-16T10:23:44.419Z,16.40
2023-04-16T10:26:11.494Z,16.40
2023-04-16T10:28:39.129Z,16.70
2023-04-16T10:31:08.953Z,17.10
2023-04-16T10:33:40.058Z,17.50
2023-04-16T10:36:22.726Z,17.60
2023-04-16T10:38:56.803Z,17.70
2023-04-16T10:41:25.487Z,18.00
2023-04-16T10:43:52.913Z,17.90
2023-04-16T10:46:20.708Z,17.60
2023-04-16T10:48:50.213Z,17.60
2023-04-16T10:51:32.576Z,17.60
2023-04-16T10:54:08.693Z,17.60
2023-04-16T10:56:36.827Z,17.40
2023-04-16T10:59:11.340Z,17.60
2023-04-16T11:01:45.772Z,17.60
2023-04-16T11:04:22.063Z,17.70
2023-04-16T11:07:03.120Z,17.90
2023-04-16T11:10:12.722Z,18.20
2023-04-16T11:12:46.920Z,17.90
2023-04-16T11:15:19.699Z,18.10
2023-04-16T11:17:51.765Z,18.00
2023-04-16T11:20:25.887Z,17.60
2023-04-16T11:22:57.971Z,17.40
2023-04-16T11:25:27.088Z,17.60
2023-04-16T11:27:54.842Z,17.80
2023-04-16T11:30:39.013Z,17.60
2023-04-16T11:33:07.775Z,17.70
2023-04-16T11:35:34.840Z,17.90
2023-04-16T11:38:01.873Z,18.00
2023-04-16T11:40:32.086Z,18.10
2023-04-16T11:43:26.642Z,17.80
2023-04-16T11:46:10.305Z,17.50
2023-04-16T11:49:01.576Z,17.40
2023-04-16T11:51:29.985Z,17.30
2023-04-16T11:53:58.854Z,17.30
2023-04-16T11:56:30.162Z,17.50
2023-04-16T11:59:14.276Z,17.60
2023-04-16T12:01:45.819Z,17.40
2023-04-16T12:04:15.026Z,17.50
2023-04-16T12:07:01.586Z,17.50
2023-04-16T12:09:28.487Z,17.50
2023-04-16T12:11:55.359Z,17.60
2023-04-16T12:14:23.841Z,17.70
2023-04-16T12:16:50.898Z,17.50
2023-04-16T12:19:19.047Z,17.50
2023-04-16T12:21:50.513Z,17.40
2023-04-16T12:24:22.779Z,17.50
2023-04-16T12:26:56.893Z,17.50
2023-04-16T12:29:25.944Z,17.40
2023-04-16T12:31:53.864Z,17.30
2023-04-16T12:34:21.981Z,17.40
2023-04-16T12:37:09.592Z,17.40
2023-04-16T12:39:36.544Z,17.50
2023-04-16T12:42:04.285Z,17.50
2023-04-16T12:44:31.533Z,17.60
2023-04-16T12:46:58.360Z,17.80
2023-04-16T12:49:25.376Z,17.90
2023-04-16T12:51:52.230Z,17.90
2023-04-16T12:54:19.202Z,17.70
2023-04-16T12:56:46.280Z,17.70
2023-04-16T12:59:13.311Z,18.00
2023-04-16T13:01:40.524Z,18.30
2023-04-16T13:04:07.864Z,18.30
2023-04-16T13:06:36.923Z,18.30
2023-04-16T13:09:04.764Z,18.30
2023-04-16T13:11:32.118Z,18.20
2023-04-16T13:13:59.152Z,18.20
2023-04-16T13:16:26.431Z,18.10
2023-04-16T13:18:53.397Z,18.20
2023-04-16T13:21:20.277Z,18.00
2023-04-16T13:23:47.211Z,17.90
2023-04-16T13:26:15.951Z,17.90
2023-04-16T13:28:43.158Z,18.00
2023-04-16T13:31:10.160Z,18.10
2023-04-16T13:33:38.112Z,18.20
2023-04-16T13:36:05.547Z,18.20
2023-04-16T13:38:32.496Z,18.20
2023-04-16T13:40:59.574Z,18.10
2023-04-16T13:43:27.058Z,18.10
2023-04-16T13:45:54.558Z,18.20
2023-04-16T13:48:21.869Z,18.30
2023-04-16T13:50:49.075Z,18.20
2023-04-16T13:53:16.180Z,18.20
2023-04-16T13:55:43.695Z,18.20
2023-04-16T13:58:11.611Z,18.30
2023-04-16T14:00:38.491Z,18.30
2023-04-16T14:03:07.331Z,18.10
2023-04-16T14:05:35.655Z,17.90
2023-04-16T14:08:02.602Z,17.90
2023-04-16T14:10:32.864Z,17.90
2023-04-16T14:12:59.807Z,18.00
2023-04-16T14:15:28.999Z,17.90
2023-04-16T14:17:56.460Z,17.90
2023-04-16T14:20:23.422Z,18.00
2023-04-16T14:22:50.617Z,18.10
2023-04-16T14:25:18.078Z,18.10
2023-04-16T14:27:45.409Z,18.10
2023-04-16T14:30:12.681Z,18.00
2023-04-16T14:32:39.995Z,18.10
2023-04-16T14:35:08.785Z,18.10
2023-04-16T14:37:37.189Z,18.20
2023-04-16T14:40:08.255Z,18.30
2023-04-16T14:42:39.023Z,18.40
2023-04-16T14:45:06.833Z,18.20
2023-04-16T14:47:34.647Z,18.10
2023-04-16T14:50:02.671Z,18.20
2023-04-16T14:52:32.277Z,18.30
2023-04-16T14:54:59.846Z,18.30
2023-04-16T14:57:27.100Z,18.40
2023-04-16T14:59:54.063Z,18.40
2023-04-16T15:02:21.873Z,18.40
2023-04-16T15:04:49.112Z,18.50
2023-04-16T15:07:16.384Z,18.40
2023-04-16T15:09:43.369Z,18.30
2023-04-16T15:12:10.911Z,18.30
2023-04-16T15:14:38.287Z,18.30
2023-04-16T15:17:06.762Z,18.40
2023-04-16T15:19:34.244Z,18.30
2023-04-16T15:22:01.541Z,18.30
2023-04-16T15:24:28.497Z,18.30
2023-04-16T15:26:56.325Z,18.30
2023-04-16T15:29:23.776Z,18.20
2023-04-16T15:31:50.893Z,18.20
2023-04-16T15:34:18.605Z,18.20
2023-04-16T15:36:45.736Z,18.10
2023-04-16T15:39:13.383Z,18.00
2023-04-16T15:41:53.639Z,18.00
2023-04-16T15:44:26.936Z,18.00
2023-04-16T15:46:55.814Z,17.90
2023-04-16T15:49:23.219Z,17.80
2023-04-16T15:51:50.429Z,17.80
2023-04-16T15:54:19.922Z,17.70
2023-04-16T15:56:47.495Z,17.60
2023-04-16T15:59:15.293Z,17.60
2023-04-16T16:01:42.270Z,17.50
2023-04-16T16:04:09.996Z,17.50
2023-04-16T16:06:38.561Z,17.40
2023-04-16T16:09:06.761Z,17.30
2023-04-16T16:11:35.648Z,17.40
2023-04-16T16:14:03.119Z,17.40
2023-04-16T16:16:31.872Z,17.50
2023-04-16T16:18:59.559Z,17.50
2023-04-16T16:21:29.223Z,17.50
2023-04-16T16:23:56.768Z,17.50
2023-04-16T16:26:24.053Z,17.50
2023-04-16T16:28:51.922Z,17.50
2023-04-16T16:31:19.315Z,17.50
2023-04-16T16:33:46.827Z,17.50
2023-04-16T16:36:14.624Z,17.40
2023-04-16T16:38:45.580Z,17.40
2023-04-16T16:41:13.234Z,17.30
2023-04-16T16:43:42.114Z,17.30
2023-04-16T16:46:10.511Z,17.20
2023-04-16T16:48:38.067Z,17.10
2023-04-16T16:51:09.414Z,17.10
2023-04-16T16:53:39.539Z,17.00
2023-04-16T16:56:07.021Z,17.00
2023-04-16T16:58:35.180Z,17.00
2023-04-16T17:01:04.902Z,16.90
2023-04-16T17:03:32.407Z,16.80
2023-04-16T17:05:59.799Z,16.80
2023-04-16T17:08:27.165Z,16.80
2023-04-16T17:10:54.985Z,16.70
2023-04-16T17:13:22.885Z,16.70
2023-04-16T17:15:50.162Z,16.70
2023-04-16T17:18:18.208Z,16.60
2023-04-16T17:20:46.181Z,16.60
2023-04-16T17:23:14.708Z,16.60
2023-04-16T17:25:42.456Z,16.50
2023-04-16T17:28:09.975Z,16.50
2023-04-16T17:30:37.608Z,16.40
2023-04-16T17:33:05.160Z,16.40
2023-04-16T17:35:32.932Z,16.30
2023-04-16T17:38:01.856Z,16.30
2023-04-16T17:40:29.525Z,16.20
2023-04-16T17:42:57.044Z,16.20
2023-04-16T17:45:24.596Z,16.20
2023-04-16T17:47:52.108Z,16.10
2023-04-16T17:50:22.877Z,16.10
2023-04-16T17:52:50.589Z,16.10
2023-04-16T17:55:17.811Z,16.10
2023-04-16T17:57:45.567Z,16.10
2023-04-16T18:00:17.591Z,16.00
2023-04-16T18:03:05.470Z,16.00
2023-04-16T18:05:35.093Z,15.90
2023-04-16T18:08:05.151Z,15.90
2023-04-16T18:10:33.354Z,15.90
2023-04-16T18:13:01.499Z,15.80
2023-04-16T18:15:29.836Z,15.80
2023-04-16T18:17:57.528Z,15.70
2023-04-16T18:20:24.678Z,15.70
2023-04-16T18:22:52.292Z,15.60
2023-04-16T18:25:29.446Z,15.60
2023-04-16T18:28:02.541Z,15.50
2023-04-16T18:30:30.015Z,15.50
2023-04-16T18:35:28.926Z,15.40
2023-04-16T18:37:56.466Z,15.40
2023-04-16T18:40:24.125Z,15.30
2023-04-16T18:42:52.477Z,15.20
2023-04-16T18:45:21.907Z,15.20
2023-04-16T18:47:50.814Z,15.20
2023-04-16T18:50:18.526Z,15.10
2023-04-16T18:52:46.458Z,15.10
2023-04-16T18:55:13.935Z,15.10
2023-04-16T18:57:41.649Z,15.00
2023-04-16T19:00:13.398Z,15.00
2023-04-16T19:02:41.462Z,15.00
2023-04-16T19:05:10.334Z,14.90
2023-04-16T19:07:38.175Z,14.90
2023-04-16T19:10:08.026Z,14.80
2023-04-16T19:12:39.638Z,14.80
2023-04-16T19:15:09.679Z,14.80
2023-04-16T19:17:37.163Z,14.70
2023-04-16T19:20:08.626Z,14.70
2023-04-16T19:22:36.245Z,14.60
2023-04-16T19:25:03.992Z,14.60
2023-04-16T19:27:31.593Z,14.50
2023-04-16T19:29:59.328Z,14.50
2023-04-16T19:32:26.846Z,14.40
2023-04-16T19:34:54.670Z,14.40
2023-04-16T19:37:22.342Z,14.30
2023-04-16T19:39:50.203Z,14.30
2023-04-16T19:42:18.775Z,14.30
2023-04-16T19:44:46.203Z,14.30
2023-04-16T19:47:14.425Z,14.30
2023-04-16T19:49:44.094Z,14.30
2023-04-16T19:52:11.836Z,14.20
2023-04-16T19:54:39.825Z,14.20
2023-04-16T19:57:06.903Z,14.20
2023-04-16T19:59:34.871Z,14.20
2023-04-16T20:02:03.928Z,14.20
2023-04-16T20:04:31.853Z,14.20
2023-04-16T20:07:00.167Z,14.20
2023-04-16T20:09:29.005Z,14.10
2023-04-16T20:11:57.482Z,14.10
2023-04-16T20:14:25.222Z,14.10
2023-04-16T20:16:52.914Z,14.20
2023-04-16T20:19:20.304Z,14.10
2023-04-16T20:21:47.949Z,14.10
2023-04-16T20:24:15.576Z,14.10
2023-04-16T20:26:43.006Z,14.10
2023-04-16T20:29:10.293Z,14.10
2023-04-16T20:31:41.689Z,14.10
2023-04-16T20:34:09.044Z,14.10
2023-04-16T20:36:37.071Z,14.30
2023-04-16T20:39:07.198Z,14.00
2023-04-16T20:41:34.352Z,14.00
2023-04-16T20:44:05.438Z,14.00
2023-04-16T20:46:35.210Z,14.10
2023-04-16T20:49:02.891Z,14.00
2023-04-16T20:51:29.872Z,14.10
2023-04-16T20:53:56.763Z,14.00
2023-04-16T20:56:23.762Z,14.00
2023-04-16T20:58:50.770Z,14.00
2023-04-16T21:01:18.463Z,14.00
2023-04-16T21:03:45.598Z,14.00
2023-04-16T21:06:17.786Z,14.00
2023-04-16T21:08:44.772Z,14.00
2023-04-16T21:11:12.423Z,14.00
2023-04-16T21:13:39.295Z,14.00
2023-04-16T21:16:06.332Z,14.00
2023-04-16T21:18:33.278Z,14.00
2023-04-16T21:21:00.166Z,14.00
2023-04-16T21:23:27.060Z,14.00
2023-04-16T21:25:56.635Z,14.00
2023-04-16T21:28:23.545Z,14.00
2023-04-16T21:30:53.582Z,14.00
2023-04-16T21:33:20.479Z,14.00
2023-04-16T21:35:54.624Z,14.00
2023-04-16T21:38:22.056Z,13.90
2023-04-16T21:40:53.724Z,13.90
2023-04-16T21:43:20.726Z,13.90
2023-04-16T21:45:47.624Z,13.90
2023-04-16T21:48:14.814Z,13.80
2023-04-16T21:50:41.667Z,13.80
2023-04-16T21:53:08.621Z,13.80
2023-04-16T21:55:36.412Z,13.70
2023-04-16T21:58:04.049Z,13.70
2023-04-16T22:00:30.940Z,13.60
2023-04-16T22:03:00.101Z,13.60
2023-04-16T22:05:27.261Z,13.60
2023-04-16T22:07:54.095Z,13.60
2023-04-16T22:10:21.160Z,13.60
2023-04-16T22:12:48.091Z,13.50
2023-04-16T22:15:15.036Z,13.50
2023-04-16T22:17:42.095Z,13.50
2023-04-16T22:20:11.801Z,13.50
2023-04-16T22:22:41.622Z,13.50
2023-04-16T22:25:09.430Z,13.50
2023-04-16T22:27:37.010Z,13.50
2023-04-16T22:30:04.437Z,13.50
2023-04-16T22:32:31.632Z,13.50
2023-04-16T22:34:58.597Z,13.40
2023-04-16T22:37:25.577Z,13.40
2023-04-16T22:39:52.458Z,13.50
2023-04-16T22:42:19.314Z,13.50
2023-04-16T22:44:46.197Z,13.50
2023-04-16T22:47:13.704Z,13.50
2023-04-16T22:49:40.669Z,13.40
2023-04-16T22:52:07.503Z,13.40
2023-04-16T22:54:34.384Z,13.40
2023-04-16T22:57:01.306Z,13.40
2023-04-16T22:59:28.215Z,13.40
2023-04-16T23:01:55.208Z,13.40
2023-04-16T23:04:22.662Z,13.40
2023-04-16T23:06:49.512Z,13.40
2023-04-16T23:09:17.071Z,13.40
2023-04-16T23:11:43.925Z,13.40
2023-04-16T23:14:10.843Z,13.40
2023-04-16T23:16:37.729Z,13.40
2023-04-16T23:19:04.653Z,13.40
2023-04-16T23:21:32.484Z,13.40
2023-04-16T23:23:59.369Z,13.40
2023-04-16T23:26:26.286Z,13.40
2023-04-16T23:28:53.162Z,13.40
2023-04-16T23:31:20.058Z,13.40
2023-04-16T23:33:47.047Z,13.40
2023-04-16T23:36:13.897Z,13.40
2023-04-16T23:38:40.771Z,13.40
2023-04-16T23:41:07.835Z,13.50
2023-04-16T23:43:35.328Z,13.50
2023-04-16T23:46:02.703Z,13.50
2023-04-16T23:48:29.669Z,13.50
2023-04-16T23:50:56.522Z,13.50
2023-04-16T23:53:23.482Z,13.40
2023-04-16T23:55:50.452Z,13.50
2023-04-16T23:58:17.299Z,13.50
